createdAt,value
2023-05-06T00:00:56.295Z,14.37
2023-05-06T00:03:23.007Z,14.35
2023-05-06T00:05:49.647Z,14.33
2023-05-06T00:08:16.577Z,14.32
2023-05-06T00:10:43.029Z,14.31
2023-05-06T00:13:09.571Z,14.32
2023-05-06T00:15:36.531Z,14.29
2023-05-06T00:18:03.166Z,14.30
2023-05-06T00:20:29.707Z,14.27
2023-05-06T00:22:56.188Z,14.26
2023-05-06T00:25:22.616Z,14.26
2023-05-06T00:27:49.030Z,14.25
2023-05-06T00:30:15.504Z,14.24
2023-05-06T00:32:42.072Z,14.23
2023-05-06T00:35:09.298Z,14.21
2023-05-06T00:37:35.919Z,14.18
2023-05-06T00:40:03.451Z,14.17
2023-05-06T00:42:29.928Z,14.16
2023-05-06T00:44:56.388Z,14.17
2023-05-06T00:47:23.365Z,14.14
2023-05-06T00:49:50.224Z,14.11
2023-05-06T00:52:19.184Z,14.09
2023-05-06T00:54:45.710Z,14.08
2023-05-06T00:57:12.238Z,14.06
2023-05-06T00:59:39.636Z,14.04
2023-05-06T01:02:06.084Z,14.02
2023-05-06T01:04:33.586Z,14.01
2023-05-06T01:07:35.354Z,13.98
2023-05-06T01:10:10.645Z,13.94
2023-05-06T01:12:50.569Z,13.91
2023-05-06T01:15:28.342Z,13.90
2023-05-06T01:17:58.539Z,13.89
2023-05-06T01:20:25.190Z,13.88
2023-05-06T01:22:52.533Z,13.85
2023-05-06T01:25:22.915Z,13.83
2023-05-06T01:27:49.954Z,13.83
2023-05-06T01:30:19.104Z,13.82
2023-05-06T01:32:52.999Z,13.78
2023-05-06T01:35:43.818Z,13.76
2023-05-06T01:38:10.210Z,13.74
2023-05-06T01:40:37.255Z,13.74
2023-05-06T01:43:06.389Z,13.73
2023-05-06T01:45:36.265Z,13.71
2023-05-06T01:48:04.922Z,13.70
2023-05-06T01:50:32.787Z,13.68
2023-05-06T01:53:02.092Z,13.67
2023-05-06T01:55:28.805Z,13.65
2023-05-06T01:57:56.664Z,13.66
2023-05-06T02:00:27.576Z,13.66
2023-05-06T02:02:54.068Z,13.66
2023-05-06T02:05:20.806Z,13.65
2023-05-06T02:07:51.350Z,13.66
2023-05-06T02:10:19.061Z,13.66
2023-05-06T02:12:51.081Z,13.67
2023-05-06T02:15:17.545Z,13.67
2023-05-06T02:17:44.032Z,13.67
2023-05-06T02:20:10.815Z,13.66
2023-05-06T02:22:37.174Z,13.66
2023-05-06T02:25:03.924Z,13.65
2023-05-06T02:27:30.804Z,13.64
2023-05-06T02:29:57.210Z,13.64
2023-05-06T02:32:23.753Z,13.63
2023-05-06T02:34:51.597Z,13.62
2023-05-06T02:37:20.269Z,13.60
2023-05-06T02:39:46.704Z,13.59
2023-05-06T02:42:14.003Z,13.58
2023-05-06T02:44:40.734Z,13.57
2023-05-06T02:47:07.177Z,13.55
2023-05-06T02:49:33.706Z,13.55
2023-05-06T02:52:00.074Z,13.52
2023-05-06T02:54:27.335Z,13.50
2023-05-06T02:56:53.766Z,13.48
2023-05-06T02:59:20.137Z,13.46
2023-05-06T03:01:46.511Z,13.45
2023-05-06T03:04:13.118Z,13.45
2023-05-06T03:06:39.617Z,13.46
2023-05-06T03:09:06.351Z,13.45
2023-05-06T03:11:33.157Z,13.44
2023-05-06T03:14:03.494Z,13.42
2023-05-06T03:16:30.325Z,13.42
2023-05-06T03:18:59.357Z,13.41
2023-05-06T03:21:26.082Z,13.40
2023-05-06T03:23:53.242Z,13.38
2023-05-06T03:26:22.980Z,13.34
2023-05-06T03:28:50.122Z,13.34
2023-05-06T03:31:19.377Z,13.32
2023-05-06T03:33:46.046Z,13.32
2023-05-06T03:36:13.987Z,13.29
2023-05-06T03:38:42.326Z,13.26
2023-05-06T03:41:09.791Z,13.24
2023-05-06T03:43:37.350Z,13.21
2023-05-06T03:46:04.920Z,13.21
2023-05-06T03:48:34.431Z,13.21
2023-05-06T03:51:01.119Z,13.21
2023-05-06T03:53:28.673Z,13.19
2023-05-06T03:55:55.218Z,13.15
2023-05-06T03:58:22.298Z,13.11
2023-05-06T04:00:50.562Z,13.09
2023-05-06T04:03:17.158Z,13.08
2023-05-06T04:05:49.080Z,13.09
2023-05-06T04:08:18.233Z,13.09
2023-05-06T04:10:45.558Z,13.09
2023-05-06T04:13:26.411Z,13.09
2023-05-06T04:15:53.388Z,13.08
2023-05-06T04:18:24.890Z,13.07
2023-05-06T04:21:00.147Z,13.07
2023-05-06T04:23:27.898Z,13.02
2023-05-06T04:25:57.729Z,13.01
2023-05-06T04:28:24.822Z,13.00
2023-05-06T04:30:52.741Z,12.99
2023-05-06T04:33:22.372Z,13.00
2023-05-06T04:35:59.325Z,13.02
2023-05-06T04:38:30.516Z,13.03
2023-05-06T04:40:57.358Z,13.04
2023-05-06T04:43:27.737Z,13.06
2023-05-06T04:46:01.684Z,13.07
2023-05-06T04:48:31.925Z,13.10
2023-05-06T04:50:59.428Z,13.14
2023-05-06T04:53:25.993Z,13.15
2023-05-06T04:55:52.432Z,13.20
2023-05-06T04:58:19.478Z,13.22
2023-05-06T05:00:46.822Z,13.31
2023-05-06T05:03:13.399Z,13.38
2023-05-06T05:05:40.098Z,13.45
2023-05-06T05:08:13.834Z,13.52
2023-05-06T05:10:43.262Z,13.60
2023-05-06T05:13:13.766Z,13.66
2023-05-06T05:15:40.453Z,13.72
2023-05-06T05:18:08.964Z,13.75
2023-05-06T05:20:36.128Z,13.74
2023-05-06T05:23:04.873Z,13.70
2023-05-06T05:25:32.151Z,13.69
2023-05-06T05:27:58.685Z,13.67
2023-05-06T05:30:26.076Z,13.66
2023-05-06T05:32:53.873Z,13.65
2023-05-06T05:35:20.652Z,13.66
2023-05-06T05:37:47.948Z,13.67
2023-05-06T05:40:15.619Z,13.66
2023-05-06T05:42:43.255Z,13.64
2023-05-06T05:45:18.259Z,13.64
2023-05-06T05:47:45.124Z,13.64
2023-05-06T05:50:12.327Z,13.65
2023-05-06T05:52:39.835Z,13.65
2023-05-06T05:55:07.261Z,13.70
2023-05-06T05:57:34.588Z,13.72
2023-05-06T06:00:01.215Z,13.74
2023-05-06T06:02:31.242Z,13.79
2023-05-06T06:04:57.778Z,13.82
2023-05-06T06:07:24.198Z,13.87
2023-05-06T06:09:50.706Z,13.89
2023-05-06T06:12:18.044Z,13.91
2023-05-06T06:14:48.420Z,13.92
2023-05-06T06:17:18.014Z,13.95
2023-05-06T06:19:46.067Z,13.98
2023-05-06T06:22:13.123Z,14.00
2023-05-06T06:24:39.736Z,14.02
2023-05-06T06:27:06.243Z,14.09
2023-05-06T06:29:33.132Z,14.25
2023-05-06T06:31:59.564Z,14.43
2023-05-06T06:34:26.184Z,14.59
2023-05-06T06:36:52.581Z,14.68
2023-05-06T06:39:19.064Z,14.79
2023-05-06T06:41:45.497Z,14.86
2023-05-06T06:44:11.919Z,14.91
2023-05-06T06:46:38.823Z,14.98
2023-05-06T06:49:05.395Z,15.06
2023-05-06T06:51:32.282Z,15.11
2023-05-06T06:53:58.739Z,15.23
2023-05-06T06:56:25.150Z,15.33
2023-05-06T06:58:53.287Z,15.40
2023-05-06T07:01:20.090Z,15.45
2023-05-06T07:03:46.731Z,15.50
2023-05-06T07:06:13.224Z,15.50
2023-05-06T07:08:39.674Z,15.51
2023-05-06T07:11:06.065Z,15.49
2023-05-06T07:13:32.431Z,15.47
2023-05-06T07:15:58.830Z,15.43
2023-05-06T07:18:25.259Z,15.53
2023-05-06T07:20:51.695Z,15.66
2023-05-06T07:23:18.113Z,15.72
2023-05-06T07:25:44.638Z,15.75
2023-05-06T07:28:11.124Z,15.72
2023-05-06T07:30:38.706Z,15.74
2023-05-06T07:33:05.108Z,15.86
2023-05-06T07:35:31.672Z,15.98
2023-05-06T07:37:58.213Z,16.12
2023-05-06T07:40:24.643Z,16.22
2023-05-06T07:42:51.183Z,16.29
2023-05-06T07:45:19.515Z,16.40
2023-05-06T07:47:46.243Z,16.44
2023-05-06T07:50:12.650Z,16.42
2023-05-06T07:52:39.142Z,16.44
2023-05-06T07:55:06.291Z,16.48
2023-05-06T07:57:32.704Z,16.51
2023-05-06T07:59:59.154Z,16.59
2023-05-06T08:02:27.028Z,16.66
2023-05-06T08:04:53.748Z,16.71
2023-05-06T08:07:20.330Z,16.74
2023-05-06T08:09:46.909Z,16.75
2023-05-06T08:12:13.504Z,16.77
2023-05-06T08:14:39.962Z,16.83
2023-05-06T08:17:06.361Z,16.86
2023-05-06T08:19:32.864Z,16.90
2023-05-06T08:21:59.244Z,16.90
2023-05-06T08:24:25.664Z,16.90
2023-05-06T08:26:52.239Z,16.97
2023-05-06T08:29:19.110Z,17.00
2023-05-06T08:31:47.044Z,17.11
2023-05-06T08:34:13.592Z,17.21
2023-05-06T08:36:40.034Z,17.28
2023-05-06T08:39:06.510Z,17.34
2023-05-06T08:41:34.493Z,17.39
2023-05-06T08:44:03.239Z,17.42
2023-05-06T08:46:30.994Z,17.48
2023-05-06T08:48:59.126Z,17.54
2023-05-06T08:51:31.668Z,17.50
2023-05-06T08:54:02.153Z,17.55
2023-05-06T08:56:32.650Z,17.53
2023-05-06T08:58:59.596Z,17.60
2023-05-06T09:01:27.939Z,17.71
2023-05-06T09:03:56.730Z,17.81
2023-05-06T09:06:24.157Z,17.85
2023-05-06T09:08:50.937Z,17.87
2023-05-06T09:11:24.841Z,17.88
2023-05-06T09:14:06.883Z,17.93
2023-05-06T09:16:33.400Z,18.03
2023-05-06T09:18:59.894Z,18.12
2023-05-06T09:21:36.716Z,18.08
2023-05-06T09:24:04.900Z,18.14
2023-05-06T09:26:33.287Z,18.18
2023-05-06T09:29:00.395Z,18.22
2023-05-06T09:31:28.069Z,18.26
2023-05-06T09:33:57.093Z,18.32
2023-05-06T09:36:25.246Z,18.38
2023-05-06T09:38:53.911Z,18.43
2023-05-06T09:41:21.553Z,18.45
2023-05-06T09:43:49.212Z,18.49
2023-05-06T09:46:19.311Z,18.50
2023-05-06T09:48:46.843Z,18.62
2023-05-06T09:51:13.393Z,18.70
2023-05-06T09:53:39.924Z,18.80
2023-05-06T09:56:07.810Z,18.89
2023-05-06T09:58:35.804Z,18.96
2023-05-06T10:01:07.796Z,19.01
2023-05-06T10:03:35.589Z,18.99
2023-05-06T10:06:04.593Z,18.99
2023-05-06T10:08:33.254Z,19.07
2023-05-06T10:11:01.598Z,19.07
2023-05-06T10:13:28.381Z,19.10
2023-05-06T10:15:55.315Z,19.15
2023-05-06T10:18:26.401Z,19.22
2023-05-06T10:20:55.188Z,19.27
2023-05-06T10:23:43.186Z,19.25
2023-05-06T10:26:11.762Z,19.33
2023-05-06T10:28:41.090Z,19.40
2023-05-06T10:31:15.851Z,19.45
2023-05-06T10:33:45.786Z,19.53
2023-05-06T10:36:20.310Z,19.57
2023-05-06T10:38:54.573Z,19.65
2023-05-06T10:41:22.286Z,19.64
2023-05-06T10:43:56.602Z,19.62
2023-05-06T10:46:26.081Z,19.62
2023-05-06T10:49:04.744Z,19.64
2023-05-06T10:51:32.779Z,19.67
2023-05-06T10:54:05.548Z,19.76
2023-05-06T10:56:34.458Z,19.61
2023-05-06T10:59:09.020Z,19.52
2023-05-06T11:01:37.073Z,19.43
2023-05-06T11:04:15.086Z,19.35
2023-05-06T11:06:46.639Z,19.36
2023-05-06T11:09:27.468Z,19.40
2023-05-06T11:12:02.897Z,19.37
2023-05-06T11:14:38.544Z,19.36
2023-05-06T11:17:30.256Z,19.48
2023-05-06T11:20:18.306Z,19.57
2023-05-06T11:22:44.742Z,19.60
2023-05-06T11:25:11.195Z,19.64
2023-05-06T11:27:37.647Z,19.73
2023-05-06T11:30:05.203Z,19.81
2023-05-06T11:32:33.144Z,19.85
2023-05-06T11:34:59.672Z,19.88
2023-05-06T11:37:28.169Z,19.96
2023-05-06T11:39:54.564Z,20.09
2023-05-06T11:42:25.750Z,20.22
2023-05-06T11:44:57.128Z,20.33
2023-05-06T11:47:24.078Z,20.43
2023-05-06T11:49:54.737Z,20.53
2023-05-06T11:52:21.133Z,20.60
2023-05-06T11:54:50.074Z,20.62
2023-05-06T11:57:16.634Z,20.70
2023-05-06T11:59:43.058Z,20.68
2023-05-06T12:02:12.771Z,20.65
2023-05-06T12:04:47.108Z,20.62
2023-05-06T12:07:15.191Z,20.60
2023-05-06T12:09:49.385Z,20.57
2023-05-06T12:12:19.389Z,20.60
2023-05-06T12:14:47.353Z,20.70
2023-05-06T12:17:14.666Z,20.78
2023-05-06T12:19:41.395Z,20.72
2023-05-06T12:22:15.677Z,20.53
2023-05-06T12:24:42.211Z,20.43
2023-05-06T12:27:08.580Z,20.35
2023-05-06T12:29:35.096Z,20.31
2023-05-06T12:32:09.434Z,20.20
2023-05-06T12:34:40.682Z,20.19
2023-05-06T12:37:08.643Z,20.28
2023-05-06T12:39:39.533Z,20.36
2023-05-06T12:42:06.629Z,20.36
2023-05-06T12:44:37.296Z,20.35
2023-05-06T12:47:07.371Z,20.33
2023-05-06T12:49:58.079Z,20.29
2023-05-06T12:52:27.449Z,20.37
2023-05-06T12:54:54.107Z,20.49
2023-05-06T12:57:21.387Z,20.49
2023-05-06T12:59:48.885Z,20.46
2023-05-06T13:02:15.614Z,20.52
2023-05-06T13:04:42.153Z,20.55
2023-05-06T13:07:08.649Z,20.64
2023-05-06T13:09:35.140Z,20.68
2023-05-06T13:12:02.393Z,20.66
2023-05-06T13:14:28.849Z,20.72
2023-05-06T13:16:55.841Z,20.78
2023-05-06T13:19:32.203Z,20.91
2023-05-06T13:22:00.393Z,20.87
2023-05-06T13:24:27.094Z,20.84
2023-05-06T13:26:53.594Z,20.90
2023-05-06T13:29:20.059Z,20.99
2023-05-06T13:31:46.601Z,21.13
2023-05-06T13:34:13.079Z,21.26
2023-05-06T13:36:39.506Z,21.38
2023-05-06T13:39:05.988Z,21.28
2023-05-06T13:41:32.772Z,21.16
2023-05-06T13:43:59.356Z,21.12
2023-05-06T13:46:27.258Z,21.19
2023-05-06T13:48:53.792Z,21.35
2023-05-06T13:51:20.419Z,21.46
2023-05-06T13:53:46.812Z,21.60
2023-05-06T13:56:13.298Z,21.56
2023-05-06T13:58:39.729Z,21.59
2023-05-06T14:01:06.202Z,21.70
2023-05-06T14:03:32.621Z,21.76
2023-05-06T14:05:59.120Z,21.71
2023-05-06T14:08:25.610Z,21.69
2023-05-06T14:10:52.006Z,21.68
2023-05-06T14:13:18.431Z,21.68
2023-05-06T14:15:45.848Z,21.69
2023-05-06T14:18:12.473Z,21.69
2023-05-06T14:20:39.029Z,21.69
2023-05-06T14:23:06.801Z,21.75
2023-05-06T14:25:34.338Z,21.78
2023-05-06T14:28:00.839Z,21.79
2023-05-06T14:30:27.380Z,21.81
2023-05-06T14:32:54.136Z,21.80
2023-05-06T14:35:20.824Z,21.84
2023-05-06T14:37:47.306Z,21.80
2023-05-06T14:40:15.424Z,21.83
2023-05-06T14:42:42.996Z,21.79
2023-05-06T14:45:11.994Z,21.63
2023-05-06T14:47:40.631Z,21.61
2023-05-06T14:50:09.280Z,21.60
2023-05-06T14:52:36.877Z,21.66
2023-05-06T14:55:06.010Z,21.64
2023-05-06T14:57:32.527Z,21.61
2023-05-06T14:59:58.991Z,21.57
2023-05-06T15:02:25.555Z,21.47
2023-05-06T15:04:51.957Z,21.31
2023-05-06T15:07:18.530Z,21.20
2023-05-06T15:09:45.226Z,20.93
2023-05-06T15:12:11.697Z,20.72
2023-05-06T15:14:38.905Z,20.65
2023-05-06T15:17:05.886Z,20.50
2023-05-06T15:19:33.436Z,20.48
2023-05-06T15:22:00.433Z,20.46
2023-05-06T15:24:26.895Z,20.45
2023-05-06T15:26:53.753Z,20.49
2023-05-06T15:29:20.292Z,20.56
2023-05-06T15:31:47.241Z,20.42
2023-05-06T15:34:14.070Z,20.22
2023-05-06T15:36:44.276Z,20.14
2023-05-06T15:39:10.749Z,20.12
2023-05-06T15:41:37.940Z,20.09
2023-05-06T15:44:06.175Z,20.12
2023-05-06T15:46:33.281Z,20.19
2023-05-06T15:49:17.374Z,20.21
2023-05-06T15:51:46.729Z,20.18
2023-05-06T15:54:13.350Z,20.19
2023-05-06T15:56:41.530Z,20.19
2023-05-06T15:59:08.567Z,20.15
2023-05-06T16:02:04.743Z,20.11
2023-05-06T16:04:22.069Z,19.97
2023-05-06T16:06:48.787Z,19.94
2023-05-06T16:09:15.302Z,19.89
2023-05-06T16:11:41.696Z,19.85
2023-05-06T16:14:08.079Z,19.83
2023-05-06T16:16:34.588Z,19.91
2023-05-06T16:19:01.129Z,19.98
2023-05-06T16:21:28.604Z,20.02
2023-05-06T16:23:55.082Z,20.02
2023-05-06T16:26:21.541Z,19.96
2023-05-06T16:28:47.940Z,19.88
2023-05-06T16:31:14.429Z,19.76
2023-05-06T16:33:41.005Z,19.68
2023-05-06T16:36:07.852Z,19.52
2023-05-06T16:38:34.525Z,19.48
2023-05-06T16:41:01.014Z,19.47
2023-05-06T16:43:27.632Z,19.42
2023-05-06T16:45:54.113Z,19.49
2023-05-06T16:48:20.547Z,19.47
2023-05-06T16:50:47.083Z,19.38
2023-05-06T16:53:13.785Z,19.32
2023-05-06T16:55:40.324Z,19.24
2023-05-06T16:58:06.745Z,19.24
2023-05-06T17:00:33.345Z,19.28
2023-05-06T17:03:00.209Z,19.22
2023-05-06T17:05:28.021Z,19.16
2023-05-06T17:07:54.464Z,19.14
2023-05-06T17:10:21.901Z,19.16
2023-05-06T17:12:48.312Z,19.02
2023-05-06T17:15:14.735Z,19.00
2023-05-06T17:17:41.245Z,18.94
2023-05-06T17:20:08.497Z,18.96
2023-05-06T17:22:35.166Z,18.97
2023-05-06T17:25:02.044Z,18.90
2023-05-06T17:27:28.576Z,18.85
2023-05-06T17:29:55.123Z,18.81
2023-05-06T17:32:22.641Z,18.87
2023-05-06T17:34:49.242Z,18.89
2023-05-06T17:37:15.856Z,18.89
2023-05-06T17:39:42.284Z,18.84
2023-05-06T17:42:09.510Z,18.79
2023-05-06T17:44:37.930Z,18.86
2023-05-06T17:47:04.429Z,18.85
2023-05-06T17:49:34.153Z,18.80
2023-05-06T17:52:01.703Z,18.74
2023-05-06T17:54:32.348Z,18.77
2023-05-06T17:57:00.630Z,18.80
2023-05-06T17:59:28.155Z,18.88
2023-05-06T18:01:54.959Z,18.91
2023-05-06T18:04:21.435Z,18.91
2023-05-06T18:06:47.800Z,18.89
2023-05-06T18:09:14.807Z,18.80
2023-05-06T18:11:41.263Z,18.80
2023-05-06T18:14:08.056Z,18.78
2023-05-06T18:16:34.623Z,18.75
2023-05-06T18:19:03.313Z,18.69
2023-05-06T18:21:29.744Z,18.51
2023-05-06T18:24:05.694Z,18.44
2023-05-06T18:26:45.398Z,18.36
2023-05-06T18:29:12.622Z,18.25
2023-05-06T18:31:39.271Z,18.16
2023-05-06T18:34:05.818Z,18.23
2023-05-06T18:36:32.562Z,18.23
2023-05-06T18:38:59.019Z,18.24
2023-05-06T18:41:25.619Z,18.25
2023-05-06T18:43:52.248Z,18.29
2023-05-06T18:46:18.803Z,18.34
2023-05-06T18:48:45.427Z,18.35
2023-05-06T18:51:17.942Z,18.34
2023-05-06T18:53:44.966Z,18.28
2023-05-06T18:56:11.866Z,18.14
2023-05-06T18:58:40.088Z,18.01
2023-05-06T19:01:08.991Z,17.97
2023-05-06T19:03:35.793Z,17.97
2023-05-06T19:06:04.036Z,17.97
2023-05-06T19:08:31.568Z,17.94
2023-05-06T19:11:02.005Z,17.87
2023-05-06T19:13:28.538Z,17.62
2023-05-06T19:15:55.166Z,17.40
2023-05-06T19:18:21.639Z,17.34
2023-05-06T19:20:48.123Z,17.37
2023-05-06T19:23:14.542Z,17.38
2023-05-06T19:25:41.021Z,17.42
2023-05-06T19:28:07.932Z,17.24
2023-05-06T19:30:35.641Z,17.17
2023-05-06T19:33:03.192Z,17.26
2023-05-06T19:35:30.029Z,17.34
2023-05-06T19:37:56.691Z,17.41
2023-05-06T19:40:23.265Z,17.50
2023-05-06T19:42:49.813Z,17.55
2023-05-06T19:45:17.499Z,17.58
2023-05-06T19:47:45.625Z,17.59
2023-05-06T19:50:12.799Z,17.58
2023-05-06T19:52:39.934Z,17.54
2023-05-06T19:55:07.201Z,17.53
2023-05-06T19:57:33.876Z,17.51
2023-05-06T20:00:04.962Z,17.53
2023-05-06T20:02:32.373Z,17.54
2023-05-06T20:05:00.103Z,17.53
2023-05-06T20:07:26.708Z,17.52
2023-05-06T20:09:55.327Z,17.52
2023-05-06T20:12:22.936Z,17.49
2023-05-06T20:14:49.688Z,17.46
2023-05-06T20:17:16.565Z,17.47
2023-05-06T20:19:43.130Z,17.48
2023-05-06T20:22:09.530Z,17.47
2023-05-06T20:24:37.289Z,17.47
2023-05-06T20:27:03.681Z,17.46
2023-05-06T20:29:30.718Z,17.45
2023-05-06T20:31:57.339Z,17.42
2023-05-06T20:34:23.816Z,17.41
2023-05-06T20:36:50.505Z,17.39
2023-05-06T20:39:16.959Z,17.36
2023-05-06T20:41:43.397Z,17.27
2023-05-06T20:44:09.908Z,17.26
2023-05-06T20:46:36.405Z,17.22
2023-05-06T20:49:02.775Z,17.20
2023-05-06T20:51:29.372Z,17.22
2023-05-06T20:53:56.523Z,17.26
2023-05-06T20:56:24.813Z,17.28
2023-05-06T20:58:52.351Z,17.27
2023-05-06T21:01:20.957Z,17.25
2023-05-06T21:03:47.843Z,17.26
2023-05-06T21:06:18.974Z,17.24
2023-05-06T21:08:46.529Z,17.24
2023-05-06T21:11:13.443Z,17.21
2023-05-06T21:13:40.619Z,17.20
2023-05-06T21:16:07.077Z,17.16
2023-05-06T21:18:33.488Z,17.17
2023-05-06T21:21:00.187Z,17.17
2023-05-06T21:23:26.698Z,17.17
2023-05-06T21:25:53.185Z,17.18
2023-05-06T21:28:19.607Z,17.17
2023-05-06T21:30:46.086Z,17.16
2023-05-06T21:33:12.637Z,17.07
2023-05-06T21:35:39.028Z,17.05
2023-05-06T21:38:05.514Z,17.03
2023-05-06T21:40:32.017Z,17.04
2023-05-06T21:42:58.687Z,17.04
2023-05-06T21:45:25.054Z,17.01
2023-05-06T21:47:51.642Z,16.98
2023-05-06T21:50:18.121Z,16.98
2023-05-06T21:52:44.523Z,16.97
2023-05-06T21:55:11.523Z,16.97
2023-05-06T21:57:38.732Z,16.95
2023-05-06T22:00:11.926Z,16.93
2023-05-06T22:02:40.200Z,16.90
2023-05-06T22:05:08.309Z,16.88
2023-05-06T22:07:35.887Z,16.87
2023-05-06T22:10:02.708Z,16.86
2023-05-06T22:12:29.103Z,16.82
2023-05-06T22:14:55.837Z,16.82
2023-05-06T22:17:22.376Z,16.80
2023-05-06T22:19:48.878Z,16.82
2023-05-06T22:22:16.089Z,16.81
2023-05-06T22:24:42.612Z,16.79
2023-05-06T22:27:09.047Z,16.77
2023-05-06T22:29:35.439Z,16.76
2023-05-06T22:32:02.202Z,16.75
2023-05-06T22:34:28.732Z,16.75
2023-05-06T22:36:55.519Z,16.77
2023-05-06T22:39:22.566Z,16.75
2023-05-06T22:41:50.750Z,16.74
2023-05-06T22:44:17.382Z,16.73
2023-05-06T22:46:43.825Z,16.71
2023-05-06T22:49:10.265Z,16.71
2023-05-06T22:51:36.659Z,16.69
2023-05-06T22:54:03.168Z,16.68
2023-05-06T22:56:29.536Z,16.67
2023-05-06T22:58:55.988Z,16.67
2023-05-06T23:01:22.775Z,16.65
2023-05-06T23:03:49.260Z,16.65
2023-05-06T23:06:15.705Z,16.65
2023-05-06T23:08:42.149Z,16.64
2023-05-06T23:11:08.536Z,16.63
2023-05-06T23:13:36.359Z,16.62
2023-05-06T23:16:02.841Z,16.55
2023-05-06T23:18:29.241Z,16.55
2023-05-06T23:20:55.681Z,16.56
2023-05-06T23:23:22.072Z,16.55
2023-05-06T23:25:48.561Z,16.56
2023-05-06T23:28:15.003Z,16.55
2023-05-06T23:30:41.561Z,16.52
2023-05-06T23:33:08.801Z,16.53
2023-05-06T23:35:35.436Z,16.54
2023-05-06T23:38:01.883Z,16.53
2023-05-06T23:40:28.366Z,16.51
2023-05-06T23:42:54.807Z,16.47
2023-05-06T23:45:21.253Z,16.45
2023-05-06T23:47:47.715Z,16.43
2023-05-06T23:50:14.548Z,16.42
2023-05-06T23:52:41.199Z,16.41
2023-05-06T23:55:07.944Z,16.37
2023-05-06T23:57:34.362Z,16.35
